Garvin, Minnesota
Current Conditions -  °F | °C
As of 11:12 PM on Friday 21 Nov 2014 (Local Time) from KTKC Reporting Station
Overcast Overcast  
Wind Chill: 24°   Ceiling: 11000
Heat Index: 36°   Visibility: 10mi
Dew Point: 30°   Wind: 23mph
Humidity: 78%   Direction: 220°SW
Pressure: 29.82"   Gusts: 29mph
Location:  44.21°N, 95.76°W
Report Text: KTKC 220512Z AUTO 22020G25KT 10SM OVC110 02/M01 A2982 RMK AO2 T00211013
Loading
Personal Weather Stations






























Interactive Weather Map New forecast layout! Learn more

10-Day Weather Forecast

Advertisements
Track Severe Weather on mobile